sensor_id;sensor_type;location;lat;lon;timestamp;P1;durP1;ratioP1;P2;durP2;ratioP2
22606;SDS011;11470;20.968;105.834;2024-03-08T00:02:03;99.90;;;46.05;;
22606;SDS011;11470;20.968;105.834;2024-03-08T00:07:08;105.88;;;50.75;;
22606;SDS011;11470;20.968;105.834;2024-03-08T00:12:13;88.75;;;40.63;;
22606;SDS011;11470;20.968;105.834;2024-03-08T00:17:17;106.78;;;52.72;;
22606;SDS011;11470;20.968;105.834;2024-03-08T00:22:22;118.18;;;51.50;;
22606;SDS011;11470;20.968;105.834;2024-03-08T00:27:27;122.72;;;63.00;;
22606;SDS011;11470;20.968;105.834;2024-03-08T00:32:34;108.97;;;54.75;;
22606;SDS011;11470;20.968;105.834;2024-03-08T00:37:40;102.03;;;49.55;;
22606;SDS011;11470;20.968;105.834;2024-03-08T00:42:45;111.30;;;52.92;;
22606;SDS011;11470;20.968;105.834;2024-03-08T00:47:50;116.80;;;54.42;;
22606;SDS011;11470;20.968;105.834;2024-03-08T00:52:55;113.68;;;54.65;;
22606;SDS011;11470;20.968;105.834;2024-03-08T00:58:00;113.73;;;59.17;;
22606;SDS011;11470;20.968;105.834;2024-03-08T01:03:05;115.32;;;55.08;;
22606;SDS011;11470;20.968;105.834;2024-03-08T01:08:10;125.93;;;65.18;;
22606;SDS011;11470;20.968;105.834;2024-03-08T01:13:15;115.35;;;57.20;;
22606;SDS011;11470;20.968;105.834;2024-03-08T01:18:22;105.18;;;53.58;;
22606;SDS011;11470;20.968;105.834;2024-03-08T01:23:26;102.10;;;51.83;;
22606;SDS011;11470;20.968;105.834;2024-03-08T01:28:32;123.15;;;57.80;;
22606;SDS011;11470;20.968;105.834;2024-03-08T01:33:38;106.73;;;54.90;;
22606;SDS011;11470;20.968;105.834;2024-03-08T01:38:43;83.07;;;35.30;;
22606;SDS011;11470;20.968;105.834;2024-03-08T01:43:48;115.45;;;59.28;;
22606;SDS011;11470;20.968;105.834;2024-03-08T01:48:53;114.45;;;57.78;;
22606;SDS011;11470;20.968;105.834;2024-03-08T01:53:59;107.20;;;59.57;;
22606;SDS011;11470;20.968;105.834;2024-03-08T01:59:06;112.95;;;62.17;;
22606;SDS011;11470;20.968;105.834;2024-03-08T02:04:12;145.52;;;79.32;;
22606;SDS011;11470;20.968;105.834;2024-03-08T02:09:17;144.00;;;75.57;;
22606;SDS011;11470;20.968;105.834;2024-03-08T02:14:23;139.27;;;78.15;;
22606;SDS011;11470;20.968;105.834;2024-03-08T02:19:27;123.70;;;67.55;;
22606;SDS011;11470;20.968;105.834;2024-03-08T02:24:32;112.32;;;60.65;;
22606;SDS011;11470;20.968;105.834;2024-03-08T02:29:38;131.37;;;73.57;;
22606;SDS011;11470;20.968;105.834;2024-03-08T02:34:44;119.05;;;67.82;;
22606;SDS011;11470;20.968;105.834;2024-03-08T02:39:49;141.40;;;79.05;;
22606;SDS011;11470;20.968;105.834;2024-03-08T02:44:54;122.25;;;69.95;;
22606;SDS011;11470;20.968;105.834;2024-03-08T02:49:59;118.80;;;66.53;;
22606;SDS011;11470;20.968;105.834;2024-03-08T02:55:04;126.23;;;66.33;;
22606;SDS011;11470;20.968;105.834;2024-03-08T03:00:13;140.13;;;74.78;;
22606;SDS011;11470;20.968;105.834;2024-03-08T03:05:22;126.05;;;69.82;;
22606;SDS011;11470;20.968;105.834;2024-03-08T03:10:27;120.78;;;65.28;;
22606;SDS011;11470;20.968;105.834;2024-03-08T03:15:32;134.48;;;71.50;;
22606;SDS011;11470;20.968;105.834;2024-03-08T03:20:37;129.48;;;64.25;;
22606;SDS011;11470;20.968;105.834;2024-03-08T03:25:46;138.73;;;74.70;;
22606;SDS011;11470;20.968;105.834;2024-03-08T03:30:51;142.70;;;77.18;;
22606;SDS011;11470;20.968;105.834;2024-03-08T03:35:56;140.80;;;78.43;;
22606;SDS011;11470;20.968;105.834;2024-03-08T03:41:02;159.57;;;87.60;;
22606;SDS011;11470;20.968;105.834;2024-03-08T03:46:13;138.60;;;78.32;;
22606;SDS011;11470;20.968;105.834;2024-03-08T03:51:22;139.88;;;79.70;;
22606;SDS011;11470;20.968;105.834;2024-03-08T03:56:27;143.35;;;82.78;;
22606;SDS011;11470;20.968;105.834;2024-03-08T04:01:33;159.85;;;94.70;;
22606;SDS011;11470;20.968;105.834;2024-03-08T04:06:41;151.52;;;86.55;;
22606;SDS011;11470;20.968;105.834;2024-03-08T04:11:47;161.90;;;89.80;;
22606;SDS011;11470;20.968;105.834;2024-03-08T04:16:57;154.80;;;85.40;;
22606;SDS011;11470;20.968;105.834;2024-03-08T04:22:02;152.38;;;87.35;;
22606;SDS011;11470;20.968;105.834;2024-03-08T04:27:07;172.68;;;96.13;;
22606;SDS011;11470;20.968;105.834;2024-03-08T04:32:12;144.80;;;77.57;;
22606;SDS011;11470;20.968;105.834;2024-03-08T04:37:18;175.30;;;95.70;;
22606;SDS011;11470;20.968;105.834;2024-03-08T04:42:28;151.40;;;84.40;;
22606;SDS011;11470;20.968;105.834;2024-03-08T04:47:36;141.30;;;80.55;;
22606;SDS011;11470;20.968;105.834;2024-03-08T04:52:41;168.37;;;91.77;;
22606;SDS011;11470;20.968;105.834;2024-03-08T04:57:47;162.98;;;90.60;;
22606;SDS011;11470;20.968;105.834;2024-03-08T05:02:52;144.35;;;81.22;;
22606;SDS011;11470;20.968;105.834;2024-03-08T05:07:57;131.83;;;73.37;;
22606;SDS011;11470;20.968;105.834;2024-03-08T05:13:05;159.95;;;91.95;;
22606;SDS011;11470;20.968;105.834;2024-03-08T05:18:10;142.10;;;83.00;;
22606;SDS011;11470;20.968;105.834;2024-03-08T05:23:18;195.70;;;106.72;;
22606;SDS011;11470;20.968;105.834;2024-03-08T05:28:23;133.82;;;75.60;;
22606;SDS011;11470;20.968;105.834;2024-03-08T05:33:28;152.20;;;83.03;;
22606;SDS011;11470;20.968;105.834;2024-03-08T05:38:33;167.98;;;99.32;;
22606;SDS011;11470;20.968;105.834;2024-03-08T05:43:40;141.65;;;83.15;;
22606;SDS011;11470;20.968;105.834;2024-03-08T05:48:45;157.73;;;88.95;;
22606;SDS011;11470;20.968;105.834;2024-03-08T05:53:50;153.87;;;87.77;;
22606;SDS011;11470;20.968;105.834;2024-03-08T05:58:57;160.80;;;93.97;;
22606;SDS011;11470;20.968;105.834;2024-03-08T06:04:02;154.30;;;94.60;;
22606;SDS011;11470;20.968;105.834;2024-03-08T06:09:07;139.30;;;82.03;;
22606;SDS011;11470;20.968;105.834;2024-03-08T06:14:15;170.63;;;98.78;;
22606;SDS011;11470;20.968;105.834;2024-03-08T06:19:23;158.05;;;91.82;;
22606;SDS011;11470;20.968;105.834;2024-03-08T06:24:28;164.32;;;97.00;;
22606;SDS011;11470;20.968;105.834;2024-03-08T06:34:39;165.77;;;98.80;;
22606;SDS011;11470;20.968;105.834;2024-03-08T06:39:44;152.67;;;92.10;;
22606;SDS011;11470;20.968;105.834;2024-03-08T06:44:49;146.48;;;85.80;;
22606;SDS011;11470;20.968;105.834;2024-03-08T06:49:55;149.57;;;87.57;;
22606;SDS011;11470;20.968;105.834;2024-03-08T06:54:59;154.55;;;91.78;;
22606;SDS011;11470;20.968;105.834;2024-03-08T07:00:05;152.63;;;85.93;;
22606;SDS011;11470;20.968;105.834;2024-03-08T07:05:14;146.88;;;82.63;;
22606;SDS011;11470;20.968;105.834;2024-03-08T07:10:25;151.70;;;87.38;;
22606;SDS011;11470;20.968;105.834;2024-03-08T07:15:33;156.00;;;90.57;;
22606;SDS011;11470;20.968;105.834;2024-03-08T07:20:42;148.98;;;89.20;;
22606;SDS011;11470;20.968;105.834;2024-03-08T07:25:49;170.52;;;97.40;;
22606;SDS011;11470;20.968;105.834;2024-03-08T07:30:54;172.23;;;99.43;;
22606;SDS011;11470;20.968;105.834;2024-03-08T07:36:13;157.30;;;83.10;;
22606;SDS011;11470;20.968;105.834;2024-03-08T07:41:18;150.88;;;87.97;;
22606;SDS011;11470;20.968;105.834;2024-03-08T07:46:26;159.80;;;89.85;;
22606;SDS011;11470;20.968;105.834;2024-03-08T07:51:34;162.55;;;90.65;;
22606;SDS011;11470;20.968;105.834;2024-03-08T07:56:39;178.73;;;104.18;;
22606;SDS011;11470;20.968;105.834;2024-03-08T08:01:43;153.95;;;82.93;;
22606;SDS011;11470;20.968;105.834;2024-03-08T08:06:51;175.07;;;104.45;;
22606;SDS011;11470;20.968;105.834;2024-03-08T08:11:58;148.70;;;93.85;;
22606;SDS011;11470;20.968;105.834;2024-03-08T08:17:03;153.30;;;89.72;;
22606;SDS011;11470;20.968;105.834;2024-03-08T08:22:12;165.40;;;99.45;;
22606;SDS011;11470;20.968;105.834;2024-03-08T08:27:17;150.68;;;82.30;;
22606;SDS011;11470;20.968;105.834;2024-03-08T08:32:21;151.50;;;85.72;;
22606;SDS011;11470;20.968;105.834;2024-03-08T08:37:26;158.85;;;93.63;;
22606;SDS011;11470;20.968;105.834;2024-03-08T08:42:32;160.07;;;94.53;;
22606;SDS011;11470;20.968;105.834;2024-03-08T08:47:40;157.85;;;93.15;;
22606;SDS011;11470;20.968;105.834;2024-03-08T08:52:46;163.93;;;96.10;;
22606;SDS011;11470;20.968;105.834;2024-03-08T08:57:51;160.05;;;94.07;;
22606;SDS011;11470;20.968;105.834;2024-03-08T09:08:01;166.18;;;98.10;;
22606;SDS011;11470;20.968;105.834;2024-03-08T09:13:06;162.50;;;100.97;;
22606;SDS011;11470;20.968;105.834;2024-03-08T09:18:23;147.18;;;84.35;;
22606;SDS011;11470;20.968;105.834;2024-03-08T09:23:28;147.02;;;82.88;;
22606;SDS011;11470;20.968;105.834;2024-03-08T09:28:33;160.55;;;84.65;;
22606;SDS011;11470;20.968;105.834;2024-03-08T09:33:38;152.32;;;84.70;;
22606;SDS011;11470;20.968;105.834;2024-03-08T09:38:43;171.32;;;91.15;;
22606;SDS011;11470;20.968;105.834;2024-03-08T09:43:49;171.03;;;93.90;;
22606;SDS011;11470;20.968;105.834;2024-03-08T09:48:54;184.33;;;96.53;;
22606;SDS011;11470;20.968;105.834;2024-03-08T09:53:59;187.23;;;97.90;;
22606;SDS011;11470;20.968;105.834;2024-03-08T09:59:18;177.90;;;98.72;;
22606;SDS011;11470;20.968;105.834;2024-03-08T10:04:43;178.43;;;87.65;;
22606;SDS011;11470;20.968;105.834;2024-03-08T10:09:51;174.25;;;88.28;;
22606;SDS011;11470;20.968;105.834;2024-03-08T10:15:00;168.73;;;91.57;;
22606;SDS011;11470;20.968;105.834;2024-03-08T10:20:14;186.00;;;103.95;;
22606;SDS011;11470;20.968;105.834;2024-03-08T10:25:21;182.18;;;98.47;;
22606;SDS011;11470;20.968;105.834;2024-03-08T10:30:28;174.57;;;91.70;;
22606;SDS011;11470;20.968;105.834;2024-03-08T10:35:33;184.95;;;101.88;;
22606;SDS011;11470;20.968;105.834;2024-03-08T10:40:38;173.25;;;94.53;;
22606;SDS011;11470;20.968;105.834;2024-03-08T10:45:44;191.18;;;102.22;;
22606;SDS011;11470;20.968;105.834;2024-03-08T10:50:51;181.68;;;88.35;;
22606;SDS011;11470;20.968;105.834;2024-03-08T10:55:57;182.82;;;89.50;;
22606;SDS011;11470;20.968;105.834;2024-03-08T11:01:03;188.40;;;98.80;;
22606;SDS011;11470;20.968;105.834;2024-03-08T11:11:50;200.30;;;101.63;;
22606;SDS011;11470;20.968;105.834;2024-03-08T11:16:56;196.25;;;104.55;;
22606;SDS011;11470;20.968;105.834;2024-03-08T11:22:02;205.32;;;111.53;;
22606;SDS011;11470;20.968;105.834;2024-03-08T11:27:08;202.48;;;106.88;;
22606;SDS011;11470;20.968;105.834;2024-03-08T11:32:15;227.68;;;125.63;;
22606;SDS011;11470;20.968;105.834;2024-03-08T11:37:25;234.02;;;132.02;;
22606;SDS011;11470;20.968;105.834;2024-03-08T11:42:35;209.27;;;111.45;;
22606;SDS011;11470;20.968;105.834;2024-03-08T11:47:44;233.52;;;126.05;;
22606;SDS011;11470;20.968;105.834;2024-03-08T11:52:49;234.50;;;130.23;;
22606;SDS011;11470;20.968;105.834;2024-03-08T11:58:01;261.10;;;141.27;;
22606;SDS011;11470;20.968;105.834;2024-03-08T12:03:08;291.70;;;172.98;;
22606;SDS011;11470;20.968;105.834;2024-03-08T12:08:16;267.83;;;140.13;;
22606;SDS011;11470;20.968;105.834;2024-03-08T12:13:21;240.05;;;124.00;;
22606;SDS011;11470;20.968;105.834;2024-03-08T12:18:27;261.25;;;140.57;;
22606;SDS011;11470;20.968;105.834;2024-03-08T12:23:34;255.85;;;140.05;;
22606;SDS011;11470;20.968;105.834;2024-03-08T12:28:40;239.20;;;129.50;;
22606;SDS011;11470;20.968;105.834;2024-03-08T12:33:51;256.63;;;133.10;;
22606;SDS011;11470;20.968;105.834;2024-03-08T12:39:02;232.10;;;117.53;;
22606;SDS011;11470;20.968;105.834;2024-03-08T12:44:08;254.10;;;137.47;;
22606;SDS011;11470;20.968;105.834;2024-03-08T12:49:15;236.73;;;120.82;;
22606;SDS011;11470;20.968;105.834;2024-03-08T12:54:25;221.45;;;113.57;;
22606;SDS011;11470;20.968;105.834;2024-03-08T12:59:31;219.63;;;113.87;;
22606;SDS011;11470;20.968;105.834;2024-03-08T13:04:36;222.80;;;116.35;;
22606;SDS011;11470;20.968;105.834;2024-03-08T13:09:42;208.65;;;108.88;;
22606;SDS011;11470;20.968;105.834;2024-03-08T13:14:47;202.93;;;99.07;;
22606;SDS011;11470;20.968;105.834;2024-03-08T13:19:52;214.93;;;112.57;;
22606;SDS011;11470;20.968;105.834;2024-03-08T13:25:01;204.90;;;105.82;;
22606;SDS011;11470;20.968;105.834;2024-03-08T13:30:09;210.73;;;113.13;;
22606;SDS011;11470;20.968;105.834;2024-03-08T13:35:17;205.23;;;103.72;;
22606;SDS011;11470;20.968;105.834;2024-03-08T13:40:27;207.73;;;111.70;;
22606;SDS011;11470;20.968;105.834;2024-03-08T13:45:35;213.63;;;108.82;;
22606;SDS011;11470;20.968;105.834;2024-03-08T13:50:42;222.70;;;117.45;;
22606;SDS011;11470;20.968;105.834;2024-03-08T13:55:48;204.67;;;103.57;;
22606;SDS011;11470;20.968;105.834;2024-03-08T14:00:56;210.60;;;116.65;;
22606;SDS011;11470;20.968;105.834;2024-03-08T14:06:02;206.68;;;114.15;;
22606;SDS011;11470;20.968;105.834;2024-03-08T14:11:12;208.85;;;105.38;;
22606;SDS011;11470;20.968;105.834;2024-03-08T14:16:18;202.27;;;103.30;;
22606;SDS011;11470;20.968;105.834;2024-03-08T14:21:27;206.13;;;105.45;;
22606;SDS011;11470;20.968;105.834;2024-03-08T14:26:33;201.75;;;109.63;;
22606;SDS011;11470;20.968;105.834;2024-03-08T14:31:38;185.60;;;97.30;;
22606;SDS011;11470;20.968;105.834;2024-03-08T14:36:46;194.52;;;108.90;;
22606;SDS011;11470;20.968;105.834;2024-03-08T14:41:52;193.95;;;107.80;;
22606;SDS011;11470;20.968;105.834;2024-03-08T14:46:59;188.90;;;107.18;;
22606;SDS011;11470;20.968;105.834;2024-03-08T14:52:04;195.32;;;106.35;;
22606;SDS011;11470;20.968;105.834;2024-03-08T14:57:32;188.10;;;105.63;;
22606;SDS011;11470;20.968;105.834;2024-03-08T15:02:37;208.95;;;117.38;;
22606;SDS011;11470;20.968;105.834;2024-03-08T15:07:44;189.05;;;100.47;;
22606;SDS011;11470;20.968;105.834;2024-03-08T15:12:50;204.63;;;105.37;;
22606;SDS011;11470;20.968;105.834;2024-03-08T15:17:59;196.70;;;105.95;;
22606;SDS011;11470;20.968;105.834;2024-03-08T15:23:07;198.55;;;111.75;;
22606;SDS011;11470;20.968;105.834;2024-03-08T15:28:13;192.40;;;99.67;;
22606;SDS011;11470;20.968;105.834;2024-03-08T15:33:19;186.98;;;86.63;;
22606;SDS011;11470;20.968;105.834;2024-03-08T15:38:29;204.57;;;109.13;;
22606;SDS011;11470;20.968;105.834;2024-03-08T15:43:35;163.03;;;77.77;;
22606;SDS011;11470;20.968;105.834;2024-03-08T15:48:44;223.50;;;121.22;;
22606;SDS011;11470;20.968;105.834;2024-03-08T15:53:50;243.65;;;132.55;;
22606;SDS011;11470;20.968;105.834;2024-03-08T15:58:59;222.30;;;117.40;;
22606;SDS011;11470;20.968;105.834;2024-03-08T16:04:10;207.93;;;112.90;;
22606;SDS011;11470;20.968;105.834;2024-03-08T16:09:15;203.32;;;109.05;;
22606;SDS011;11470;20.968;105.834;2024-03-08T16:14:21;192.90;;;109.03;;
22606;SDS011;11470;20.968;105.834;2024-03-08T16:19:26;192.97;;;108.43;;
22606;SDS011;11470;20.968;105.834;2024-03-08T16:24:34;175.40;;;93.00;;
22606;SDS011;11470;20.968;105.834;2024-03-08T16:29:45;177.27;;;92.32;;
22606;SDS011;11470;20.968;105.834;2024-03-08T16:34:51;179.80;;;98.83;;
22606;SDS011;11470;20.968;105.834;2024-03-08T16:39:59;189.25;;;96.70;;
22606;SDS011;11470;20.968;105.834;2024-03-08T16:45:08;172.13;;;97.93;;
22606;SDS011;11470;20.968;105.834;2024-03-08T16:50:17;176.55;;;102.25;;
22606;SDS011;11470;20.968;105.834;2024-03-08T16:55:27;167.20;;;94.95;;
22606;SDS011;11470;20.968;105.834;2024-03-08T17:00:46;166.13;;;98.38;;
22606;SDS011;11470;20.968;105.834;2024-03-08T17:05:52;160.37;;;90.93;;
22606;SDS011;11470;20.968;105.834;2024-03-08T17:10:58;156.68;;;88.75;;
22606;SDS011;11470;20.968;105.834;2024-03-08T17:16:04;147.47;;;83.90;;
22606;SDS011;11470;20.968;105.834;2024-03-08T17:21:10;136.73;;;76.57;;
22606;SDS011;11470;20.968;105.834;2024-03-08T17:26:17;130.30;;;75.22;;
22606;SDS011;11470;20.968;105.834;2024-03-08T17:31:22;130.00;;;70.33;;
22606;SDS011;11470;20.968;105.834;2024-03-08T17:36:28;142.70;;;76.80;;
22606;SDS011;11470;20.968;105.834;2024-03-08T17:41:36;123.10;;;68.07;;
22606;SDS011;11470;20.968;105.834;2024-03-08T17:46:44;122.63;;;68.75;;
22606;SDS011;11470;20.968;105.834;2024-03-08T17:51:53;118.22;;;67.40;;
22606;SDS011;11470;20.968;105.834;2024-03-08T17:57:00;118.32;;;68.10;;
22606;SDS011;11470;20.968;105.834;2024-03-08T18:02:05;113.32;;;63.42;;
22606;SDS011;11470;20.968;105.834;2024-03-08T18:07:10;117.93;;;61.05;;
22606;SDS011;11470;20.968;105.834;2024-03-08T18:12:14;119.82;;;68.70;;
22606;SDS011;11470;20.968;105.834;2024-03-08T18:17:19;125.43;;;68.88;;
22606;SDS011;11470;20.968;105.834;2024-03-08T18:22:24;124.78;;;69.60;;
22606;SDS011;11470;20.968;105.834;2024-03-08T18:27:28;124.50;;;67.22;;
22606;SDS011;11470;20.968;105.834;2024-03-08T18:32:33;127.13;;;68.63;;
22606;SDS011;11470;20.968;105.834;2024-03-08T18:37:41;118.95;;;67.40;;
22606;SDS011;11470;20.968;105.834;2024-03-08T18:42:49;124.03;;;66.80;;
22606;SDS011;11470;20.968;105.834;2024-03-08T18:53:01;124.72;;;70.30;;
22606;SDS011;11470;20.968;105.834;2024-03-08T18:58:07;134.57;;;73.88;;
22606;SDS011;11470;20.968;105.834;2024-03-08T19:03:13;135.65;;;70.88;;
22606;SDS011;11470;20.968;105.834;2024-03-08T19:08:18;116.70;;;65.63;;
22606;SDS011;11470;20.968;105.834;2024-03-08T19:13:25;131.30;;;73.15;;
22606;SDS011;11470;20.968;105.834;2024-03-08T19:18:31;133.47;;;76.60;;
22606;SDS011;11470;20.968;105.834;2024-03-08T19:23:35;126.75;;;70.40;;
22606;SDS011;11470;20.968;105.834;2024-03-08T19:28:40;134.30;;;76.32;;
22606;SDS011;11470;20.968;105.834;2024-03-08T19:33:47;139.02;;;75.53;;
22606;SDS011;11470;20.968;105.834;2024-03-08T19:38:53;119.23;;;67.17;;
22606;SDS011;11470;20.968;105.834;2024-03-08T19:44:00;122.95;;;71.18;;
22606;SDS011;11470;20.968;105.834;2024-03-08T19:49:06;122.13;;;71.75;;
22606;SDS011;11470;20.968;105.834;2024-03-08T19:54:11;124.60;;;69.28;;
22606;SDS011;11470;20.968;105.834;2024-03-08T19:59:18;134.20;;;74.70;;
22606;SDS011;11470;20.968;105.834;2024-03-08T20:04:24;114.50;;;61.43;;
22606;SDS011;11470;20.968;105.834;2024-03-08T20:14:35;150.85;;;81.47;;
22606;SDS011;11470;20.968;105.834;2024-03-08T20:19:40;165.43;;;85.72;;
22606;SDS011;11470;20.968;105.834;2024-03-08T20:24:45;156.50;;;85.10;;
22606;SDS011;11470;20.968;105.834;2024-03-08T20:29:50;145.00;;;80.75;;
22606;SDS011;11470;20.968;105.834;2024-03-08T20:34:56;157.38;;;86.32;;
22606;SDS011;11470;20.968;105.834;2024-03-08T20:40:01;130.93;;;73.25;;
22606;SDS011;11470;20.968;105.834;2024-03-08T20:45:09;161.38;;;84.47;;
22606;SDS011;11470;20.968;105.834;2024-03-08T20:50:16;165.43;;;84.93;;
22606;SDS011;11470;20.968;105.834;2024-03-08T20:55:21;163.63;;;87.50;;
22606;SDS011;11470;20.968;105.834;2024-03-08T21:00:27;164.57;;;91.28;;
22606;SDS011;11470;20.968;105.834;2024-03-08T21:05:45;148.60;;;80.93;;
22606;SDS011;11470;20.968;105.834;2024-03-08T21:10:54;146.85;;;81.90;;
22606;SDS011;11470;20.968;105.834;2024-03-08T21:16:00;146.65;;;78.68;;
22606;SDS011;11470;20.968;105.834;2024-03-08T21:21:04;162.05;;;88.22;;
22606;SDS011;11470;20.968;105.834;2024-03-08T21:26:12;150.27;;;81.97;;
22606;SDS011;11470;20.968;105.834;2024-03-08T21:31:18;158.80;;;87.93;;
22606;SDS011;11470;20.968;105.834;2024-03-08T21:36:26;160.32;;;89.88;;
22606;SDS011;11470;20.968;105.834;2024-03-08T21:46:37;185.07;;;96.18;;
22606;SDS011;11470;20.968;105.834;2024-03-08T21:51:42;157.63;;;89.03;;
22606;SDS011;11470;20.968;105.834;2024-03-08T21:56:49;178.10;;;96.53;;
22606;SDS011;11470;20.968;105.834;2024-03-08T22:01:54;147.60;;;79.35;;
22606;SDS011;11470;20.968;105.834;2024-03-08T22:06:59;180.52;;;94.63;;
22606;SDS011;11470;20.968;105.834;2024-03-08T22:12:05;166.60;;;91.10;;
22606;SDS011;11470;20.968;105.834;2024-03-08T22:17:12;156.80;;;85.38;;
22606;SDS011;11470;20.968;105.834;2024-03-08T22:22:21;150.93;;;79.63;;
22606;SDS011;11470;20.968;105.834;2024-03-08T22:27:27;162.88;;;90.35;;
22606;SDS011;11470;20.968;105.834;2024-03-08T22:32:32;140.05;;;80.68;;
22606;SDS011;11470;20.968;105.834;2024-03-08T22:37:37;151.63;;;87.13;;
22606;SDS011;11470;20.968;105.834;2024-03-08T22:42:43;147.40;;;83.18;;
22606;SDS011;11470;20.968;105.834;2024-03-08T22:47:49;156.05;;;86.38;;
22606;SDS011;11470;20.968;105.834;2024-03-08T22:52:53;156.20;;;87.22;;
22606;SDS011;11470;20.968;105.834;2024-03-08T22:57:59;144.98;;;77.80;;
22606;SDS011;11470;20.968;105.834;2024-03-08T23:03:05;141.45;;;83.40;;
22606;SDS011;11470;20.968;105.834;2024-03-08T23:08:13;145.10;;;81.65;;
22606;SDS011;11470;20.968;105.834;2024-03-08T23:13:21;145.35;;;76.53;;
22606;SDS011;11470;20.968;105.834;2024-03-08T23:18:28;147.75;;;83.35;;
22606;SDS011;11470;20.968;105.834;2024-03-08T23:23:32;146.85;;;85.35;;
22606;SDS011;11470;20.968;105.834;2024-03-08T23:28:42;145.90;;;82.82;;
22606;SDS011;11470;20.968;105.834;2024-03-08T23:33:48;167.50;;;99.80;;
22606;SDS011;11470;20.968;105.834;2024-03-08T23:38:53;161.27;;;94.78;;
22606;SDS011;11470;20.968;105.834;2024-03-08T23:43:58;141.60;;;83.22;;
22606;SDS011;11470;20.968;105.834;2024-03-08T23:49:05;167.80;;;98.28;;
22606;SDS011;11470;20.968;105.834;2024-03-08T23:54:10;150.97;;;85.57;;
